Time;durP1;ratioP1;P1;durP2;ratioP2;P2;SDS_P1;SDS_P2;PMS_P1;PMS_P2;Temp;Humidity;BMP_temperature;BMP_pressure;BME280_temperature;BME280_humidity;BME280_pressure;Samples;Min_cycle;Max_cycle;Signal;HPM_P1;HPM_P2
2022/03/12 00:00:57;;;;;;;21.02;10.80;;;;;;;9.12;44.06;101178.25;4992347;28;20050;-69
2022/03/12 00:03:23;;;;;;;19.95;11.00;;;;;;;9.12;44.44;101180.97;5003999;28;20033;-69
2022/03/12 00:05:53;;;;;;;19.92;10.23;;;;;;;9.13;43.79;101187.28;5002971;28;20510;-64
2022/03/12 00:11:23;;;;;;;18.50;9.60;;;;;;;9.15;44.16;101188.94;4979848;28;20058;-64
2022/03/12 00:13:50;;;;;;;17.58;10.38;;;;;;;9.15;44.14;101182.63;4986381;28;20506;-69
2022/03/12 00:16:23;;;;;;;20.67;10.48;;;;;;;9.15;44.25;101185.34;4986516;28;20425;-65
2022/03/12 00:18:55;;;;;;;21.05;10.35;;;;;;;9.15;45.03;101188.94;4988855;28;20038;-67
2022/03/12 00:21:27;;;;;;;20.88;10.68;;;;;;;9.17;44.08;101189.72;4988507;28;20030;-64
2022/03/12 00:23:56;;;;;;;17.92;10.98;;;;;;;9.15;44.64;101191.66;4979379;28;20108;-65
2022/03/12 00:26:23;;;;;;;20.02;11.30;;;;;;;9.17;44.65;101192.41;4986858;28;20045;-64
2022/03/12 00:28:50;;;;;;;18.70;11.55;;;;;;;9.16;45.52;101197.94;4981512;28;20394;-69
2022/03/12 00:31:16;;;;;;;21.88;10.50;;;;;;;9.14;44.99;101211.63;4980471;28;20031;-65
2022/03/12 00:33:42;;;;;;;20.63;11.50;;;;;;;9.15;45.18;101201.63;4988179;28;20038;-64
2022/03/12 00:36:09;;;;;;;21.60;11.43;;;;;;;9.17;45.03;101208.72;4987202;28;20061;-65
2022/03/12 00:38:34;;;;;;;21.05;11.05;;;;;;;9.14;45.06;101199.91;4982570;28;20030;-68
2022/03/12 00:41:02;;;;;;;21.77;10.43;;;;;;;9.14;45.49;101206.19;4975749;28;20038;-65
2022/03/12 00:43:27;;;;;;;17.27;10.68;;;;;;;9.17;45.25;101211.41;4983041;28;20034;-68
2022/03/12 00:45:52;;;;;;;16.73;11.02;;;;;;;9.21;44.67;101212.13;4982597;28;20034;-65
2022/03/12 00:48:18;;;;;;;17.27;10.23;;;;;;;9.23;45.52;101212.88;4988490;28;20042;-65
2022/03/12 00:50:44;;;;;;;25.25;11.60;;;;;;;9.22;46.28;101208.44;4984900;28;20030;-66
2022/03/12 00:53:09;;;;;;;16.92;9.68;;;;;;;9.22;45.56;101211.13;4988090;28;20473;-72
2022/03/12 00:55:35;;;;;;;17.75;10.43;;;;;;;9.23;45.96;101215.59;4984308;28;20456;-71
2022/03/12 00:58:01;;;;;;;23.15;12.13;;;;;;;9.25;45.91;101218.25;4985629;28;20037;-65
2022/03/12 01:00:27;;;;;;;19.95;10.32;;;;;;;9.26;46.65;101217.25;4975396;28;20038;-64
2022/03/12 01:02:53;;;;;;;19.75;10.25;;;;;;;9.26;46.46;101214.56;4986821;28;20395;-65
2022/03/12 01:05:22;;;;;;;22.42;10.48;;;;;;;9.27;46.67;101213.56;4981999;28;20386;-71
2022/03/12 01:07:48;;;;;;;22.88;11.27;;;;;;;9.28;46.74;101215.31;4987391;28;20041;-70
2022/03/12 01:10:14;;;;;;;18.17;10.05;;;;;;;9.24;46.86;101214.66;4986676;28;20065;-70
2022/03/12 01:12:43;;;;;;;20.13;10.98;;;;;;;9.25;47.63;101223.66;4988089;28;20034;-64
2022/03/12 01:15:10;;;;;;;19.85;10.82;;;;;;;9.23;47.98;101221.03;4982052;28;20052;-67
2022/03/12 01:17:36;;;;;;;23.75;11.65;;;;;;;9.25;47.73;101227.25;4981314;28;20045;-70
2022/03/12 01:20:06;;;;;;;19.65;10.75;;;;;;;9.26;48.26;101220.84;4987189;28;20031;-66
2022/03/12 01:22:38;;;;;;;21.40;10.80;;;;;;;9.26;48.35;101226.28;4988029;28;20122;-70
2022/03/12 01:25:05;;;;;;;21.45;11.07;;;;;;;9.28;48.81;101229.78;4977400;28;20721;-67
2022/03/12 01:27:31;;;;;;;19.92;10.32;;;;;;;9.28;49.29;101231.59;4988007;28;20046;-65
2022/03/12 01:29:56;;;;;;;17.80;10.27;;;;;;;9.25;49.83;101227.25;4972521;28;20049;-72
2022/03/12 01:32:24;;;;;;;21.40;11.30;;;;;;;9.21;50.06;101233.84;4976937;28;20042;-70
2022/03/12 01:34:49;;;;;;;19.27;10.23;;;;;;;9.18;51.23;101232.16;4987758;28;20453;-66
2022/03/12 01:37:19;;;;;;;21.63;10.80;;;;;;;9.15;50.36;101232.38;4987270;28;20102;-64
2022/03/12 01:39:48;;;;;;;21.73;10.48;;;;;;;9.10;53.64;101231.78;4980898;28;20537;-68
2022/03/12 01:42:14;;;;;;;19.17;10.88;;;;;;;9.06;52.69;101242.91;4986712;28;20034;-71
2022/03/12 01:44:41;;;;;;;19.63;10.68;;;;;;;8.99;53.32;101244.22;4983936;28;20036;-71
2022/03/12 01:47:09;;;;;;;18.08;11.40;;;;;;;8.96;53.29;101239.88;4981966;28;20049;-65
2022/03/12 01:49:34;;;;;;;22.70;10.18;;;;;;;8.90;53.98;101241.09;4984474;28;20034;-64
2022/03/12 01:52:00;;;;;;;32.28;12.80;;;;;;;8.91;53.32;101244.69;4995140;28;20041;-71
2022/03/12 01:54:28;;;;;;;25.77;11.52;;;;;;;8.87;55.65;101252.13;4992809;28;20443;-66
2022/03/12 01:56:55;;;;;;;21.77;10.27;;;;;;;8.82;55.75;101246.09;5008100;28;20394;-68
2022/03/12 01:59:21;;;;;;;17.98;11.82;;;;;;;8.74;57.46;101239.38;4987902;28;20042;-66
2022/03/12 02:01:51;;;;;;;20.15;9.75;;;;;;;8.72;55.06;101247.63;4992505;28;20057;-71
2022/03/12 02:04:19;;;;;;;19.02;10.68;;;;;;;8.66;56.34;101237.97;5002601;28;20034;-66
2022/03/12 02:06:46;;;;;;;19.65;11.57;;;;;;;8.65;56.61;101251.63;5002633;28;20025;-65
2022/03/12 02:09:14;;;;;;;18.45;10.07;;;;;;;8.61;58.04;101237.38;5000824;28;20051;-71
2022/03/12 02:11:40;;;;;;;19.45;11.32;;;;;;;8.58;57.31;101236.66;4991356;28;20041;-65
2022/03/12 02:14:15;;;;;;;21.42;11.20;;;;;;;8.54;56.78;101237.84;4987174;28;20081;-64
2022/03/12 02:16:47;;;;;;;19.83;11.88;;;;;;;8.52;57.22;101235.19;4985482;28;20030;-71
2022/03/12 02:19:13;;;;;;;19.67;11.18;;;;;;;8.53;56.66;101236.06;4990062;28;20129;-66
2022/03/12 02:21:44;;;;;;;24.25;11.82;;;;;;;8.52;57.40;101248.75;4990600;28;20557;-66
2022/03/12 02:24:11;;;;;;;25.48;11.00;;;;;;;8.50;56.69;101250.69;4984052;28;20089;-66
2022/03/12 02:26:38;;;;;;;21.33;12.57;;;;;;;8.52;56.88;101239.75;5004145;28;20092;-70
2022/03/12 02:29:12;;;;;;;19.67;11.57;;;;;;;8.51;57.45;101246.13;5003532;28;20041;-65
2022/03/12 02:31:45;;;;;;;23.65;10.75;;;;;;;8.49;57.34;101243.53;5008461;28;20050;-66
2022/03/12 02:34:11;;;;;;;21.98;12.38;;;;;;;8.47;58.01;101245.44;4984264;28;20502;-71
2022/03/12 02:36:37;;;;;;;21.35;11.00;;;;;;;8.49;57.55;101248.06;5008919;28;20434;-64
2022/03/12 02:39:05;;;;;;;18.55;10.13;;;;;;;8.50;57.27;101250.69;5001931;28;20125;-66
2022/03/12 02:41:31;;;;;;;19.33;10.93;;;;;;;8.50;57.83;101260.66;4993590;28;20540;-72
2022/03/12 02:43:57;;;;;;;20.17;11.10;;;;;;;8.48;57.48;101252.59;4999975;28;20026;-65
2022/03/12 02:46:24;;;;;;;19.30;11.13;;;;;;;8.52;57.25;101256.00;5004122;28;20038;-66
2022/03/12 02:48:52;;;;;;;21.95;10.35;;;;;;;8.53;57.28;101263.19;5009853;28;20133;-66
2022/03/12 02:51:20;;;;;;;17.35;10.80;;;;;;;8.53;57.74;101264.06;5009539;28;20040;-64
2022/03/12 02:53:46;;;;;;;18.35;10.52;;;;;;;8.54;57.21;101260.41;5007039;28;20567;-65
2022/03/12 02:56:12;;;;;;;17.50;10.35;;;;;;;8.53;57.43;101263.19;5009983;28;20037;-71
2022/03/12 02:58:37;;;;;;;20.98;10.73;;;;;;;8.52;56.53;101270.44;4996310;28;20037;-72
2022/03/12 03:01:04;;;;;;;17.95;11.02;;;;;;;8.54;55.89;101270.38;4988124;28;20040;-65
2022/03/12 03:03:39;;;;;;;20.20;10.75;;;;;;;8.53;56.95;101269.47;4999190;28;20128;-69
2022/03/12 03:06:04;;;;;;;19.92;10.27;;;;;;;8.51;55.93;101268.69;4984948;28;20093;-69
2022/03/12 03:08:30;;;;;;;19.73;10.15;;;;;;;8.49;56.55;101269.75;5009560;28;20025;-65
2022/03/12 03:10:59;;;;;;;21.05;10.57;;;;;;;8.46;56.65;101262.66;4987346;28;20053;-64
2022/03/12 03:13:27;;;;;;;19.17;10.80;;;;;;;8.42;57.24;101272.81;5000497;28;20031;-66
2022/03/12 03:15:56;;;;;;;16.73;9.82;;;;;;;8.38;57.32;101268.50;4980421;28;20034;-68
2022/03/12 03:18:24;;;;;;;21.27;11.07;;;;;;;8.33;57.45;101273.28;5009631;28;20038;-72
2022/03/12 03:20:51;;;;;;;19.15;10.15;;;;;;;8.26;57.54;101285.44;4999233;28;20033;-71
2022/03/12 03:23:17;;;;;;;20.38;11.27;;;;;;;8.18;58.40;101283.16;5009294;28;20084;-72
2022/03/12 03:25:43;;;;;;;21.60;11.30;;;;;;;8.09;58.32;101280.97;5000018;28;20036;-70
2022/03/12 03:28:08;;;;;;;16.90;10.40;;;;;;;8.03;59.35;101278.59;5003310;28;20618;-68
2022/03/12 03:30:37;;;;;;;23.73;10.00;;;;;;;7.97;59.62;101284.31;4975248;28;20089;-70
2022/03/12 03:33:06;;;;;;;16.58;8.85;;;;;;;7.91;59.83;101282.84;4998603;28;20041;-70
2022/03/12 03:35:31;;;;;;;19.10;9.98;;;;;;;7.87;61.64;101286.66;5008538;28;20061;-69
2022/03/12 03:37:58;;;;;;;19.27;9.25;;;;;;;7.83;60.92;101285.09;5005356;28;20397;-72
2022/03/12 03:40:24;;;;;;;16.23;8.95;;;;;;;7.77;61.56;101290.84;4997753;28;20049;-70
2022/03/12 03:42:50;;;;;;;18.67;9.85;;;;;;;7.71;61.53;101296.59;4997105;28;20035;-65
2022/03/12 03:45:27;;;;;;;16.58;9.18;;;;;;;7.65;62.75;101295.09;4970303;28;20321;-66
2022/03/12 03:47:54;;;;;;;18.08;9.25;;;;;;;7.59;62.92;101299.94;4991709;28;20049;-72
2022/03/12 03:50:25;;;;;;;16.55;9.20;;;;;;;7.53;63.45;101302.97;5008751;28;20072;-66
2022/03/12 03:53:01;;;;;;;15.50;9.25;;;;;;;7.48;63.84;101296.94;4988892;28;20405;-65
2022/03/12 03:55:27;;;;;;;15.32;9.15;;;;;;;7.42;63.81;101303.53;4984604;28;20057;-64
2022/03/12 03:57:54;;;;;;;13.30;8.93;;;;;;;7.35;64.02;101308.38;5007724;28;20041;-65
2022/03/12 04:00:23;;;;;;;19.88;10.35;;;;;;;7.29;63.99;101311.41;4994533;28;20023;-73
2022/03/12 04:03:01;;;;;;;14.93;9.35;;;;;;;7.22;63.33;101309.09;4985811;28;20042;-71
2022/03/12 04:05:37;;;;;;;14.48;8.63;;;;;;;7.16;64.17;101313.84;4979438;28;20067;-70
2022/03/12 04:08:07;;;;;;;15.60;9.45;;;;;;;7.10;64.03;101314.19;5004610;28;20034;-71
2022/03/12 04:10:34;;;;;;;17.70;10.02;;;;;;;7.05;64.87;101318.94;5001636;28;20521;-66
2022/03/12 04:13:00;;;;;;;15.80;9.07;;;;;;;7.00;65.91;101321.00;5007791;28;20025;-70
2022/03/12 04:15:25;;;;;;;16.58;8.77;;;;;;;6.95;66.41;101322.16;4979939;28;20057;-70
2022/03/12 04:17:53;;;;;;;16.98;8.98;;;;;;;6.91;67.09;101324.16;4999791;28;20120;-69
2022/03/12 04:20:22;;;;;;;16.83;8.80;;;;;;;6.87;66.73;101327.97;4998489;28;20113;-66
2022/03/12 04:22:50;;;;;;;15.95;8.98;;;;;;;6.81;66.37;101336.41;4987250;28;20049;-72
2022/03/12 04:25:17;;;;;;;15.20;9.27;;;;;;;6.75;67.33;101331.28;4989686;28;20044;-71
2022/03/12 04:27:42;;;;;;;16.73;10.00;;;;;;;6.69;67.47;101331.56;5008477;28;20029;-65
2022/03/12 04:30:10;;;;;;;17.55;10.13;;;;;;;6.61;68.03;101326.53;4977520;28;20178;-72
2022/03/12 04:32:35;;;;;;;18.88;9.77;;;;;;;6.58;67.66;101332.97;4990318;28;20044;-72
2022/03/12 04:35:01;;;;;;;17.15;9.50;;;;;;;6.54;67.97;101330.50;5006863;28;20042;-68
2022/03/12 04:37:26;;;;;;;17.83;10.52;;;;;;;6.50;68.21;101331.59;5007826;28;20034;-64
2022/03/12 04:39:51;;;;;;;16.45;9.88;;;;;;;6.44;68.92;101326.50;4986133;28;20042;-72
2022/03/12 04:42:18;;;;;;;21.05;10.02;;;;;;;6.38;69.04;101338.44;5001503;28;20058;-70
2022/03/12 04:44:43;;;;;;;15.07;9.13;;;;;;;6.34;69.86;101335.03;4980067;28;20036;-65
2022/03/12 04:47:12;;;;;;;17.92;9.55;;;;;;;6.28;69.03;101335.28;4973721;28;20150;-70
2022/03/12 04:49:37;;;;;;;18.88;8.63;;;;;;;6.25;68.34;101338.16;4997055;28;20153;-64
2022/03/12 04:52:02;;;;;;;16.63;8.90;;;;;;;6.21;68.56;101330.28;5006269;28;20513;-64
2022/03/12 04:54:32;;;;;;;17.92;10.60;;;;;;;6.17;69.64;101329.53;4981388;28;20513;-72
2022/03/12 04:56:58;;;;;;;18.63;9.68;;;;;;;6.13;70.12;101339.59;4999081;28;20038;-68
2022/03/12 04:59:23;;;;;;;16.92;9.30;;;;;;;6.11;70.11;101337.91;4995754;28;20088;-68
2022/03/12 05:01:49;;;;;;;14.45;9.75;;;;;;;6.08;69.30;101347.03;4981180;28;20089;-65
2022/03/12 05:04:14;;;;;;;18.02;9.57;;;;;;;6.04;69.93;101337.31;5002321;28;20073;-64
2022/03/12 05:06:39;;;;;;;22.42;10.23;;;;;;;6.01;69.55;101348.25;5001977;28;20030;-71
2022/03/12 05:09:05;;;;;;;17.65;10.23;;;;;;;6.01;71.02;101350.06;5000056;28;20065;-64
2022/03/12 05:11:34;;;;;;;14.68;8.77;;;;;;;5.98;70.74;101351.09;4981395;28;20061;-70
2022/03/12 05:13:59;;;;;;;18.27;10.23;;;;;;;5.96;71.42;101352.09;4991544;28;20491;-65
2022/03/12 05:16:27;;;;;;;18.75;9.75;;;;;;;5.91;72.26;101348.69;4986075;28;20062;-65
2022/03/12 05:18:53;;;;;;;18.05;9.40;;;;;;;5.86;71.47;101346.22;5007465;28;20029;-64
2022/03/12 05:21:22;;;;;;;20.60;9.45;;;;;;;5.79;72.08;101345.63;4979184;28;20069;-64
2022/03/12 05:23:47;;;;;;;17.35;9.90;;;;;;;5.79;72.12;101358.25;5003729;28;20038;-65
2022/03/12 05:26:13;;;;;;;17.63;9.38;;;;;;;5.77;72.35;101360.13;4981789;28;20049;-66
2022/03/12 05:28:41;;;;;;;19.85;9.70;;;;;;;5.78;72.03;101365.47;4997123;28;20038;-71
2022/03/12 05:31:08;;;;;;;16.73;9.35;;;;;;;5.77;72.34;101376.31;4977833;28;20446;-65
2022/03/12 05:33:34;;;;;;;18.88;10.00;;;;;;;5.77;72.06;101373.63;5008717;28;20092;-71
2022/03/12 05:36:00;;;;;;;15.70;9.55;;;;;;;5.75;72.25;101373.69;5001837;28;20042;-64
2022/03/12 05:38:32;;;;;;;16.10;8.30;;;;;;;5.71;72.38;101377.47;5005738;28;20026;-71
2022/03/12 05:40:58;;;;;;;19.35;9.23;;;;;;;5.70;72.52;101377.53;4989598;28;20407;-66
2022/03/12 05:43:25;;;;;;;21.33;10.65;;;;;;;5.68;72.16;101391.09;4985559;28;20406;-66
2022/03/12 05:45:51;;;;;;;19.58;10.82;;;;;;;5.67;71.97;101386.63;4977693;28;20022;-66
2022/03/12 05:48:17;;;;;;;21.65;10.25;;;;;;;5.65;71.86;101385.84;4981445;28;20131;-72
2022/03/12 05:50:45;;;;;;;18.13;9.63;;;;;;;5.59;72.20;101395.06;4990666;28;20141;-65
2022/03/12 05:53:12;;;;;;;17.33;9.00;;;;;;;5.58;71.96;101393.31;4990635;28;20060;-70
2022/03/12 05:55:39;;;;;;;14.88;9.35;;;;;;;5.56;72.63;101392.50;4993224;28;20059;-70
2022/03/12 05:58:10;;;;;;;17.85;10.25;;;;;;;5.55;72.82;101400.69;4990454;28;20046;-72
2022/03/12 06:00:36;;;;;;;17.83;10.23;;;;;;;5.52;73.01;101396.28;4986753;28;20042;-71
2022/03/12 06:03:10;;;;;;;23.23;10.40;;;;;;;5.55;73.27;101400.69;4993793;28;20065;-71
2022/03/12 06:05:39;;;;;;;20.05;9.20;;;;;;;5.55;74.12;101406.09;4989799;28;20041;-70
2022/03/12 06:08:06;;;;;;;17.38;9.63;;;;;;;5.54;74.94;101399.78;4990864;28;20117;-70
2022/03/12 06:10:33;;;;;;;17.38;9.27;;;;;;;5.56;73.64;101403.31;4986352;28;20080;-70
2022/03/12 06:13:05;;;;;;;17.90;8.52;;;;;;;5.57;74.43;101407.75;4985832;28;20070;-65
2022/03/12 06:15:34;;;;;;;17.02;9.48;;;;;;;5.58;74.04;101404.09;4977195;28;20073;-65
2022/03/12 06:18:00;;;;;;;17.75;8.65;;;;;;;5.56;74.63;101400.59;4987849;28;20034;-64
2022/03/12 06:20:25;;;;;;;16.60;9.07;;;;;;;5.60;75.56;101414.84;4990327;28;20046;-66
2022/03/12 06:22:52;;;;;;;14.23;8.45;;;;;;;5.61;75.37;101408.50;4986374;28;20043;-69
2022/03/12 06:25:22;;;;;;;13.77;8.25;;;;;;;5.63;75.18;101414.69;4983210;28;20022;-70
2022/03/12 06:27:52;;;;;;;16.05;9.18;;;;;;;5.70;75.74;101418.91;4989525;28;20073;-71
2022/03/12 06:30:17;;;;;;;15.80;9.27;;;;;;;5.73;76.23;101410.66;4977750;28;20120;-64
2022/03/12 06:32:44;;;;;;;16.13;9.20;;;;;;;5.77;76.72;101419.50;4990816;28;20109;-72
2022/03/12 06:35:12;;;;;;;14.25;8.15;;;;;;;5.82;75.78;101423.75;4989804;28;20553;-65
2022/03/12 06:37:38;;;;;;;15.02;9.18;;;;;;;5.87;76.57;101420.84;4986230;28;20065;-66
2022/03/12 06:40:04;;;;;;;14.52;8.50;;;;;;;5.92;76.54;101412.59;4992774;28;20062;-71
2022/03/12 06:42:32;;;;;;;13.75;8.50;;;;;;;5.96;75.91;101419.63;4991602;28;20045;-71
2022/03/12 06:44:58;;;;;;;16.23;8.85;;;;;;;5.98;76.55;101415.91;4984591;28;20030;-66
2022/03/12 06:47:31;;;;;;;15.38;8.95;;;;;;;6.04;77.71;101421.03;4992344;28;20494;-68
2022/03/12 06:49:58;;;;;;;15.75;8.15;;;;;;;6.13;76.80;101434.13;4989306;28;20048;-65
2022/03/12 06:52:24;;;;;;;17.63;8.68;;;;;;;6.22;77.40;101434.69;4998715;28;20511;-68
2022/03/12 06:54:51;;;;;;;15.18;8.63;;;;;;;6.28;75.99;101432.56;4988284;28;20039;-70
2022/03/12 06:57:17;;;;;;;15.13;8.25;;;;;;;6.35;75.95;101428.66;4979033;28;20117;-70
2022/03/12 06:59:42;;;;;;;14.60;8.07;;;;;;;6.41;76.17;101434.72;4990608;28;20117;-71
2022/03/12 07:02:08;;;;;;;12.57;8.07;;;;;;;6.54;77.20;101434.09;4985014;28;20046;-65
2022/03/12 07:04:34;;;;;;;14.68;8.82;;;;;;;6.62;76.53;101440.03;4989471;28;20449;-66
2022/03/12 07:07:01;;;;;;;16.40;8.68;;;;;;;6.73;76.98;101444.91;4993804;28;20045;-65
2022/03/12 07:09:27;;;;;;;13.65;7.47;;;;;;;6.81;76.57;101447.28;4971441;28;20093;-65
2022/03/12 07:11:56;;;;;;;18.05;8.20;;;;;;;6.92;76.39;101442.22;4991248;28;20038;-65
2022/03/12 07:14:21;;;;;;;13.82;8.73;;;;;;;7.04;76.46;101446.16;4985437;28;20042;-65
2022/03/12 07:16:48;;;;;;;14.05;8.52;;;;;;;7.16;76.32;101454.56;4990984;28;20380;-72
2022/03/12 07:19:14;;;;;;;12.35;7.53;;;;;;;7.24;75.31;101461.44;4987200;28;20053;-70
2022/03/12 07:21:40;;;;;;;11.52;7.65;;;;;;;7.31;75.13;101454.75;4988697;28;20657;-66
2022/03/12 07:24:05;;;;;;;12.73;8.65;;;;;;;7.35;76.18;101457.25;4988591;28;20034;-70
2022/03/12 07:26:31;;;;;;;13.07;8.30;;;;;;;7.47;77.28;101463.91;4990445;28;20050;-70
2022/03/12 07:28:56;;;;;;;12.48;8.15;;;;;;;7.52;76.20;101456.41;4982702;28;20030;-66
2022/03/12 07:31:22;;;;;;;13.57;8.00;;;;;;;7.65;76.28;101467.53;4985881;28;20137;-72
2022/03/12 07:33:47;;;;;;;9.40;6.72;;;;;;;7.78;75.61;101474.03;4993676;28;20113;-71
2022/03/12 07:36:13;;;;;;;15.32;8.07;;;;;;;8.04;75.56;101464.59;4984736;28;20069;-65
2022/03/12 07:38:38;;;;;;;12.18;7.10;;;;;;;8.37;75.03;101480.06;4987937;28;20450;-71
2022/03/12 07:41:03;;;;;;;12.35;7.15;;;;;;;8.65;73.79;101477.63;4973054;28;20026;-64
2022/03/12 07:43:31;;;;;;;14.98;7.85;;;;;;;8.88;74.04;101484.50;4980547;28;20080;-69
2022/03/12 07:45:57;;;;;;;13.93;7.57;;;;;;;9.18;71.94;101489.19;4979730;28;20479;-66
2022/03/12 07:48:22;;;;;;;10.18;7.20;;;;;;;9.47;71.93;101482.13;4990329;28;20070;-65
2022/03/12 07:50:48;;;;;;;12.30;7.30;;;;;;;9.72;71.09;101489.69;4983009;28;20526;-71
2022/03/12 07:53:14;;;;;;;9.88;6.57;;;;;;;10.02;70.29;101491.56;5000354;28;20038;-64
2022/03/12 07:55:40;;;;;;;11.05;6.15;;;;;;;10.17;70.67;101493.38;4985128;28;20089;-66
2022/03/12 07:58:06;;;;;;;11.23;6.03;;;;;;;10.22;70.13;101492.13;5005103;28;20049;-72
2022/03/12 08:00:32;;;;;;;10.18;6.78;;;;;;;10.17;70.10;101494.25;4981710;28;20039;-66
2022/03/12 08:02:58;;;;;;;9.95;5.75;;;;;;;10.16;70.39;101500.63;4987903;28;20073;-67
2022/03/12 08:05:25;;;;;;;10.43;6.18;;;;;;;10.20;70.86;101501.34;5007487;28;20029;-70
2022/03/12 08:07:53;;;;;;;10.10;6.25;;;;;;;10.27;70.01;101499.16;4999738;28;20042;-69
2022/03/12 08:10:18;;;;;;;9.52;6.10;;;;;;;10.31;69.89;101508.91;4980219;28;20076;-72
2022/03/12 08:12:44;;;;;;;9.00;6.20;;;;;;;10.39;69.79;101507.44;5001956;28;20521;-71
2022/03/12 08:15:12;;;;;;;11.07;5.95;;;;;;;10.41;69.38;101512.81;4993257;28;20128;-68
2022/03/12 08:17:42;;;;;;;13.60;6.18;;;;;;;10.43;69.62;101511.72;4976539;28;20030;-66
2022/03/12 08:20:08;;;;;;;12.27;6.22;;;;;;;10.46;69.67;101514.25;4986237;28;20042;-73
2022/03/12 08:22:44;;;;;;;10.60;5.60;;;;;;;10.57;69.39;101520.88;4986217;28;20041;-71
2022/03/12 08:25:12;;;;;;;9.75;6.07;;;;;;;10.69;69.81;101520.13;4981849;28;20106;-73
2022/03/12 08:27:39;;;;;;;11.18;6.10;;;;;;;10.84;68.43;101518.31;4986759;28;20351;-66
2022/03/12 08:30:07;;;;;;;9.00;6.35;;;;;;;10.93;68.47;101532.22;4988310;28;20042;-67
2022/03/12 08:32:35;;;;;;;9.50;5.78;;;;;;;11.03;68.23;101524.31;4996937;28;20869;-66
2022/03/12 08:35:01;;;;;;;7.68;4.90;;;;;;;11.17;67.14;101534.34;4992037;28;20038;-72
2022/03/12 08:37:26;;;;;;;10.88;4.20;;;;;;;11.26;67.55;101531.03;5007697;28;20046;-70
2022/03/12 08:39:52;;;;;;;10.02;5.78;;;;;;;11.33;67.26;101537.84;4989566;28;20517;-67
2022/03/12 08:42:17;;;;;;;10.10;5.85;;;;;;;11.42;66.89;101539.97;5008451;28;20030;-66
2022/03/12 08:44:43;;;;;;;7.25;5.70;;;;;;;11.50;66.75;101534.88;4982388;28;20033;-73
2022/03/12 08:47:09;;;;;;;9.65;5.80;;;;;;;11.63;66.72;101545.84;4980622;28;20049;-73
2022/03/12 08:49:35;;;;;;;8.70;6.00;;;;;;;11.80;65.93;101541.13;4985652;28;20038;-65
2022/03/12 08:52:02;;;;;;;8.65;5.95;;;;;;;11.89;65.38;101535.09;4987946;28;20469;-70
2022/03/12 08:54:28;;;;;;;9.35;5.32;;;;;;;11.95;65.21;101538.31;4974339;28;20041;-72
2022/03/12 08:56:53;;;;;;;9.65;5.47;;;;;;;12.07;65.03;101558.41;4980650;28;20117;-71
2022/03/12 08:59:19;;;;;;;8.00;5.30;;;;;;;12.14;64.72;101545.25;4974113;28;20130;-66
2022/03/12 09:01:46;;;;;;;7.88;5.70;;;;;;;12.21;65.66;101557.47;4981085;28;20089;-66
2022/03/12 09:04:11;;;;;;;10.32;5.57;;;;;;;12.22;64.92;101559.25;4987131;28;20402;-66
2022/03/12 09:06:37;;;;;;;8.85;5.75;;;;;;;12.20;64.38;101551.16;4986707;28;20030;-71
2022/03/12 09:09:04;;;;;;;8.88;4.65;;;;;;;12.32;64.56;101552.19;4983345;28;20052;-66
2022/03/12 09:11:29;;;;;;;9.82;5.32;;;;;;;12.42;64.48;101550.56;4993469;28;20031;-65
2022/03/12 09:13:55;;;;;;;11.00;4.78;;;;;;;12.50;62.78;101558.22;4997599;28;20053;-66
2022/03/12 09:16:22;;;;;;;5.53;3.70;;;;;;;12.54;63.13;101553.41;5001083;28;20037;-72
2022/03/12 09:18:47;;;;;;;9.00;4.03;;;;;;;12.64;62.44;101570.94;4991676;28;20153;-71
2022/03/12 09:21:12;;;;;;;7.45;3.83;;;;;;;12.63;62.09;101556.38;4987222;28;20109;-71
2022/03/12 09:23:38;;;;;;;12.52;4.13;;;;;;;12.67;62.29;101566.09;4992524;28;20057;-65
2022/03/12 09:26:05;;;;;;;6.57;3.78;;;;;;;12.64;62.24;101563.59;4997167;28;20030;-66
2022/03/12 09:28:30;;;;;;;9.88;4.20;;;;;;;12.62;62.22;101565.56;4990965;28;20769;-71
2022/03/12 09:30:56;;;;;;;5.93;3.85;;;;;;;12.66;62.69;101568.94;4993861;28;20047;-66
2022/03/12 09:33:22;;;;;;;11.18;4.32;;;;;;;12.65;62.73;101567.22;4987908;28;20042;-71
2022/03/12 09:35:53;;;;;;;10.18;3.50;;;;;;;12.65;62.12;101562.63;4986659;28;20038;-66
2022/03/12 09:38:18;;;;;;;7.15;3.40;;;;;;;12.68;60.02;101556.06;4983863;28;20038;-66
2022/03/12 09:40:45;;;;;;;10.23;3.38;;;;;;;12.62;59.96;101565.56;4985336;28;20030;-71
2022/03/12 09:43:11;;;;;;;10.20;3.97;;;;;;;12.64;61.10;101562.72;4987893;28;20045;-69
2022/03/12 09:45:39;;;;;;;8.73;3.95;;;;;;;12.74;59.80;101566.56;4977230;28;20022;-71
2022/03/12 09:48:05;;;;;;;7.60;2.92;;;;;;;12.78;59.23;101565.38;5000584;28;20038;-72
2022/03/12 09:50:31;;;;;;;5.75;2.67;;;;;;;12.86;59.58;101564.81;4984902;28;20179;-66
2022/03/12 09:52:59;;;;;;;5.82;2.30;;;;;;;12.90;58.12;101558.16;4986658;28;20027;-71
2022/03/12 09:55:24;;;;;;;10.18;2.80;;;;;;;12.87;57.03;101555.63;4979259;28;20050;-71
2022/03/12 09:57:50;;;;;;;7.25;2.10;;;;;;;12.86;57.33;101562.94;4987987;28;20446;-73
2022/03/12 10:00:17;;;;;;;4.15;1.83;;;;;;;12.85;57.54;101563.94;4984895;28;20038;-66
2022/03/12 10:02:43;;;;;;;5.60;2.00;;;;;;;12.75;57.31;101573.75;5005307;28;20026;-73
2022/03/12 10:05:11;;;;;;;8.13;2.70;;;;;;;12.73;58.10;101581.19;4999707;28;20049;-71
2022/03/12 10:07:36;;;;;;;6.93;2.58;;;;;;;12.74;58.03;101593.88;4980086;28;20046;-72
2022/03/12 10:10:02;;;;;;;5.03;2.25;;;;;;;12.75;58.71;101577.38;4985212;28;20108;-70
2022/03/12 10:12:28;;;;;;;7.20;2.45;;;;;;;12.86;58.00;101589.38;4980433;28;20038;-67
2022/03/12 10:14:53;;;;;;;9.38;2.80;;;;;;;12.91;57.95;101584.47;4975707;28;20031;-69
2022/03/12 10:17:19;;;;;;;5.53;2.58;;;;;;;13.10;59.28;101581.31;4976782;28;20040;-72
2022/03/12 10:19:46;;;;;;;10.02;2.80;;;;;;;13.15;56.49;101573.66;5005589;28;20014;-72
2022/03/12 10:22:12;;;;;;;8.48;2.30;;;;;;;13.19;56.94;101573.31;5003206;28;20042;-71
2022/03/12 10:24:37;;;;;;;6.82;2.47;;;;;;;13.22;56.34;101577.75;4980744;28;20100;-72
2022/03/12 10:27:06;;;;;;;6.88;2.60;;;;;;;13.19;56.24;101584.25;4989895;28;20045;-66
2022/03/12 10:29:35;;;;;;;7.60;2.50;;;;;;;13.19;56.15;101567.88;4988398;28;20034;-71
2022/03/12 10:32:21;;;;;;;5.10;2.78;;;;;;;13.26;56.75;101579.28;4984766;28;20039;-71
2022/03/12 10:34:52;;;;;;;8.85;2.63;;;;;;;13.30;56.39;101572.63;4976860;28;20038;-67
2022/03/12 10:37:19;;;;;;;6.78;2.85;;;;;;;13.42;56.31;101573.56;4993866;28;20441;-71
2022/03/12 10:39:45;;;;;;;6.07;2.45;;;;;;;13.43;56.06;101578.03;5004126;28;20445;-66
2022/03/12 10:42:12;;;;;;;5.95;2.10;;;;;;;13.48;56.19;101582.22;4991328;28;20038;-66
2022/03/12 10:44:42;;;;;;;8.25;2.15;;;;;;;13.53;56.26;101588.22;4979637;28;20034;-72
2022/03/12 10:47:24;;;;;;;8.93;2.10;;;;;;;13.59;55.25;101586.00;4999770;28;20038;-65
2022/03/12 10:50:07;;;;;;;6.13;2.08;;;;;;;13.62;55.70;101588.53;4985358;28;20041;-72
2022/03/12 10:52:34;;;;;;;2.22;1.77;;;;;;;13.85;54.90;101579.50;5002206;28;20922;-71
2022/03/12 10:55:07;;;;;;;5.95;2.85;;;;;;;14.08;53.89;101582.34;4987452;28;20039;-66
2022/03/12 10:57:33;;;;;;;5.57;3.38;;;;;;;14.32;54.26;101579.63;5007501;28;20045;-66
2022/03/12 10:59:59;;;;;;;5.85;2.50;;;;;;;14.49;52.57;101571.00;4981576;28;20043;-65
2022/03/12 11:02:24;;;;;;;8.00;2.22;;;;;;;14.63;51.58;101568.06;4974926;28;20042;-65
2022/03/12 11:04:49;;;;;;;4.65;1.88;;;;;;;14.82;51.45;101567.50;4987747;28;20038;-70
2022/03/12 11:07:26;;;;;;;7.05;2.40;;;;;;;14.85;51.27;101578.22;4981088;28;20382;-71
2022/03/12 11:09:53;;;;;;;6.82;2.33;;;;;;;14.84;51.68;101581.09;4988433;28;20046;-71
2022/03/12 11:12:47;;;;;;;2.90;1.73;;;;;;;14.88;51.20;101583.47;4989823;28;20030;-65
2022/03/12 11:15:16;;;;;;;5.95;1.90;;;;;;;15.06;50.97;101583.88;4981827;28;20058;-67
2022/03/12 11:17:51;;;;;;;6.10;2.47;;;;;;;15.33;51.83;101583.53;4988352;28;20113;-66
2022/03/12 11:20:27;;;;;;;7.65;2.42;;;;;;;15.34;50.33;101581.66;4989395;28;20726;-71
2022/03/12 11:23:13;;;;;;;3.08;1.70;;;;;;;15.32;50.84;101587.28;4989067;28;20038;-72
2022/03/12 11:25:56;;;;;;;8.18;2.33;;;;;;;15.31;50.47;101582.78;4988474;28;20034;-66